createdAt,value
2019-03-24T00:00:55.941Z,1.83
2019-03-24T00:03:24.229Z,1.40
2019-03-24T00:05:52.501Z,1.73
2019-03-24T00:08:20.758Z,1.60
2019-03-24T00:10:49.098Z,1.80
2019-03-24T00:13:17.359Z,2.13
2019-03-24T00:15:45.640Z,1.70
2019-03-24T00:18:13.894Z,1.70
2019-03-24T00:20:42.170Z,1.63
2019-03-24T00:23:10.434Z,1.80
2019-03-24T00:25:38.714Z,1.70
2019-03-24T00:28:06.958Z,1.70
2019-03-24T00:30:35.222Z,1.60
2019-03-24T00:33:03.490Z,1.73
2019-03-24T00:35:31.754Z,1.60
2019-03-24T00:38:00.038Z,1.57
2019-03-24T00:40:28.302Z,1.70
2019-03-24T00:42:56.565Z,1.60
2019-03-24T00:45:24.822Z,1.90
2019-03-24T00:47:53.110Z,1.60
2019-03-24T00:50:21.423Z,1.60
2019-03-24T00:52:49.710Z,2.00
2019-03-24T00:55:17.963Z,1.70
2019-03-24T00:57:46.234Z,1.50
2019-03-24T01:00:14.666Z,1.77
2019-03-24T01:02:42.939Z,1.60
2019-03-24T01:05:11.195Z,1.93
2019-03-24T01:07:39.466Z,1.73
2019-03-24T01:10:07.972Z,2.03
2019-03-24T01:12:36.244Z,1.73
2019-03-24T01:15:06.111Z,1.80
2019-03-24T01:17:34.379Z,1.90
2019-03-24T01:20:02.674Z,1.53
2019-03-24T01:22:30.942Z,2.40
2019-03-24T01:24:59.198Z,1.93
2019-03-24T01:27:27.477Z,1.73
2019-03-24T01:29:55.729Z,2.00
2019-03-24T01:32:24.002Z,1.80
2019-03-24T01:34:52.260Z,1.53
2019-03-24T01:37:20.547Z,1.57
2019-03-24T01:39:49.134Z,1.60
2019-03-24T01:42:17.406Z,1.50
2019-03-24T01:44:45.678Z,1.67
2019-03-24T01:47:14.018Z,1.70
2019-03-24T01:49:42.282Z,1.60
2019-03-24T01:52:10.543Z,1.50
2019-03-24T01:54:38.811Z,1.53
2019-03-24T01:57:07.068Z,1.83
2019-03-24T01:59:35.355Z,1.63
2019-03-24T02:02:03.615Z,1.60
2019-03-24T02:04:31.890Z,1.60
2019-03-24T02:07:00.151Z,1.50
2019-03-24T02:09:30.120Z,1.90
2019-03-24T02:11:58.351Z,1.40
2019-03-24T02:14:26.623Z,1.77
2019-03-24T02:16:54.878Z,1.70
2019-03-24T02:19:23.142Z,1.70
2019-03-24T02:21:51.408Z,1.40
2019-03-24T02:24:19.681Z,1.40
2019-03-24T02:26:47.930Z,1.70
2019-03-24T02:29:16.206Z,1.30
2019-03-24T02:31:44.475Z,1.57
2019-03-24T02:34:12.749Z,1.60
2019-03-24T02:36:40.999Z,1.50
2019-03-24T02:39:09.343Z,1.50
2019-03-24T02:41:37.605Z,1.60
2019-03-24T02:44:05.882Z,1.23
2019-03-24T02:46:34.211Z,1.40
2019-03-24T02:49:02.469Z,1.50
2019-03-24T02:51:30.744Z,1.50
2019-03-24T02:53:58.996Z,1.53
2019-03-24T02:56:27.607Z,1.33
2019-03-24T02:58:55.893Z,1.40
2019-03-24T03:01:24.245Z,1.40
2019-03-24T03:03:52.528Z,1.50
2019-03-24T03:06:20.850Z,1.63
2019-03-24T03:08:49.101Z,1.23
2019-03-24T03:11:17.393Z,1.40
2019-03-24T03:13:45.712Z,1.37
2019-03-24T03:16:13.983Z,1.70
2019-03-24T03:18:42.248Z,1.40
2019-03-24T03:21:10.510Z,1.83
2019-03-24T03:23:39.044Z,1.30
2019-03-24T03:26:07.323Z,1.60
2019-03-24T03:28:35.590Z,1.70
2019-03-24T03:31:03.847Z,1.37
2019-03-24T03:33:32.105Z,1.10
2019-03-24T03:36:00.447Z,1.40
2019-03-24T03:38:28.714Z,1.37
2019-03-24T03:40:56.972Z,2.07
2019-03-24T03:43:25.555Z,1.67
2019-03-24T03:45:53.833Z,1.40
2019-03-24T03:48:22.091Z,1.73
2019-03-24T03:50:50.367Z,1.20
2019-03-24T03:53:18.624Z,1.20
2019-03-24T03:55:47.242Z,1.60
2019-03-24T03:58:15.819Z,1.67
2019-03-24T04:00:44.094Z,1.27
2019-03-24T04:03:12.923Z,1.70
2019-03-24T04:05:41.182Z,1.53
2019-03-24T04:08:09.456Z,1.40
2019-03-24T04:10:37.730Z,1.57
2019-03-24T04:13:05.991Z,1.40
2019-03-24T04:15:34.887Z,1.70
2019-03-24T04:18:03.155Z,1.27
2019-03-24T04:20:31.735Z,1.40
2019-03-24T04:23:00.005Z,1.83
2019-03-24T04:25:28.251Z,1.30
2019-03-24T04:27:56.516Z,1.70
2019-03-24T04:30:24.770Z,1.30
2019-03-24T04:32:53.034Z,1.60
2019-03-24T04:35:21.299Z,1.43
2019-03-24T04:37:49.582Z,1.60
2019-03-24T04:40:18.135Z,1.30
2019-03-24T04:42:46.978Z,1.50
2019-03-24T04:45:15.231Z,1.17
2019-03-24T04:47:43.498Z,1.13
2019-03-24T04:50:11.750Z,2.43
2019-03-24T04:52:40.027Z,1.50
2019-03-24T04:55:08.551Z,1.60
2019-03-24T04:57:36.935Z,1.50
2019-03-24T05:00:11.814Z,1.63
2019-03-24T05:02:40.078Z,1.67
2019-03-24T05:05:09.116Z,1.43
2019-03-24T05:07:37.379Z,1.50
2019-03-24T05:10:06.904Z,1.30
2019-03-24T05:12:35.171Z,1.47
2019-03-24T05:15:03.430Z,1.37
2019-03-24T05:17:31.702Z,1.17
2019-03-24T05:19:59.964Z,1.20
2019-03-24T05:22:28.236Z,1.20
2019-03-24T05:24:56.487Z,1.30
2019-03-24T05:27:24.750Z,1.40
2019-03-24T05:29:53.011Z,1.23
2019-03-24T05:32:21.290Z,1.30
2019-03-24T05:34:49.551Z,1.70
2019-03-24T05:37:17.822Z,1.30
2019-03-24T05:39:46.092Z,1.30
2019-03-24T05:42:14.358Z,1.30
2019-03-24T05:44:42.638Z,1.40
2019-03-24T05:47:10.890Z,1.60
2019-03-24T05:49:39.167Z,1.23
2019-03-24T05:52:07.423Z,1.50
2019-03-24T05:54:35.690Z,1.43
2019-03-24T05:57:03.941Z,1.40
2019-03-24T05:59:32.222Z,2.50
2019-03-24T06:02:00.478Z,1.53
2019-03-24T06:04:29.021Z,1.17
2019-03-24T06:06:57.270Z,1.20
2019-03-24T06:09:25.542Z,1.50
2019-03-24T06:11:53.799Z,1.37
2019-03-24T06:14:22.077Z,1.43
2019-03-24T06:16:50.327Z,1.63
2019-03-24T06:19:18.669Z,1.37
2019-03-24T06:21:46.931Z,1.30
2019-03-24T06:24:15.189Z,1.20
2019-03-24T06:26:43.805Z,1.20
2019-03-24T06:29:12.065Z,1.50
2019-03-24T06:31:40.324Z,1.63
2019-03-24T06:34:08.583Z,1.20
2019-03-24T06:36:36.850Z,1.57
2019-03-24T06:39:07.338Z,1.20
2019-03-24T06:41:35.618Z,1.83
2019-03-24T06:44:03.915Z,1.37
2019-03-24T06:46:32.191Z,1.23
2019-03-24T06:49:00.451Z,1.43
2019-03-24T06:51:28.718Z,1.33
2019-03-24T06:53:56.978Z,1.37
2019-03-24T06:56:25.249Z,1.10
2019-03-24T06:58:53.494Z,1.20
2019-03-24T07:01:21.754Z,1.20
2019-03-24T07:03:50.007Z,1.20
2019-03-24T07:06:18.273Z,1.30
2019-03-24T07:08:46.530Z,1.17
2019-03-24T07:11:14.810Z,0.90
2019-03-24T07:13:43.065Z,1.73
2019-03-24T07:16:11.338Z,1.30
2019-03-24T07:18:39.593Z,1.10
2019-03-24T07:21:07.853Z,1.20
2019-03-24T07:23:36.118Z,1.37
2019-03-24T07:26:04.454Z,1.40
2019-03-24T07:28:32.979Z,1.67
2019-03-24T07:31:01.242Z,1.40
2019-03-24T07:33:29.511Z,1.30
2019-03-24T07:35:57.782Z,2.37
2019-03-24T07:38:26.047Z,1.30
2019-03-24T07:40:54.328Z,1.80
2019-03-24T07:43:22.576Z,0.90
2019-03-24T07:45:50.826Z,1.00
2019-03-24T07:48:19.594Z,2.17
2019-03-24T07:50:48.030Z,1.43
2019-03-24T07:53:16.294Z,1.10
2019-03-24T07:55:44.883Z,1.20
2019-03-24T07:58:13.154Z,1.57
2019-03-24T08:00:41.422Z,1.77
2019-03-24T08:03:09.712Z,1.30
2019-03-24T08:05:37.967Z,1.30
2019-03-24T08:08:06.241Z,1.20
2019-03-24T08:10:34.843Z,1.63
2019-03-24T08:13:03.118Z,1.80
2019-03-24T08:15:31.378Z,1.20
2019-03-24T08:17:59.639Z,1.50
2019-03-24T08:20:27.905Z,1.33
2019-03-24T08:22:56.169Z,1.10
2019-03-24T08:25:24.426Z,1.13
2019-03-24T08:27:52.699Z,1.30
2019-03-24T08:30:32.130Z,1.60
2019-03-24T08:33:00.406Z,1.17
2019-03-24T08:35:28.657Z,1.40
2019-03-24T08:37:56.930Z,1.10
2019-03-24T08:40:25.183Z,1.30
2019-03-24T08:42:53.446Z,1.30
2019-03-24T08:45:28.758Z,1.10
2019-03-24T08:47:57.840Z,1.20
2019-03-24T08:50:26.672Z,1.43
2019-03-24T08:52:54.937Z,1.30
2019-03-24T08:55:23.187Z,1.27
2019-03-24T08:57:51.734Z,1.00
2019-03-24T09:00:30.144Z,1.00
2019-03-24T09:02:50.317Z,1.37
2019-03-24T09:05:18.574Z,1.67
2019-03-24T09:07:46.834Z,1.20
2019-03-24T09:10:15.095Z,1.23
2019-03-24T09:12:43.448Z,1.20
2019-03-24T09:15:11.754Z,1.30
2019-03-24T09:17:41.256Z,1.20
2019-03-24T09:20:09.758Z,1.20
2019-03-24T09:22:38.019Z,1.10
2019-03-24T09:25:07.650Z,1.00
2019-03-24T09:27:35.910Z,1.40
2019-03-24T09:30:05.710Z,0.90
2019-03-24T09:32:33.993Z,1.33
2019-03-24T09:35:02.332Z,1.30
2019-03-24T09:37:30.592Z,1.00
2019-03-24T09:39:58.851Z,1.40
2019-03-24T09:42:27.124Z,1.33
2019-03-24T09:44:55.477Z,0.97
2019-03-24T09:47:23.782Z,1.20
2019-03-24T09:49:52.098Z,0.97
2019-03-24T09:52:20.402Z,1.10
2019-03-24T09:54:48.674Z,1.10
2019-03-24T09:57:16.951Z,1.67
2019-03-24T09:59:45.279Z,1.50
2019-03-24T10:02:13.534Z,1.30
2019-03-24T10:04:42.131Z,1.03
2019-03-24T10:07:10.387Z,1.10
2019-03-24T10:09:38.662Z,1.00
2019-03-24T10:12:06.920Z,1.20
2019-03-24T10:14:35.201Z,0.90
2019-03-24T10:17:03.459Z,1.10
2019-03-24T10:19:31.740Z,1.40
2019-03-24T10:22:00.259Z,1.20
2019-03-24T10:24:28.843Z,1.40
2019-03-24T10:26:57.121Z,0.90
2019-03-24T10:29:25.380Z,0.90
2019-03-24T10:31:53.657Z,1.10
2019-03-24T10:34:21.974Z,1.30
2019-03-24T10:36:50.242Z,0.70
2019-03-24T10:39:18.511Z,1.10
2019-03-24T10:41:46.784Z,1.30
2019-03-24T10:44:15.044Z,0.90
2019-03-24T10:46:43.322Z,1.00
2019-03-24T10:49:11.570Z,1.00
2019-03-24T10:51:39.846Z,1.20
2019-03-24T10:54:08.095Z,0.90
2019-03-24T10:56:36.394Z,1.10
2019-03-24T10:59:04.726Z,1.23
2019-03-24T11:01:32.991Z,0.70
2019-03-24T11:04:01.249Z,1.00
2019-03-24T11:06:29.519Z,1.17
2019-03-24T11:08:57.773Z,1.20
2019-03-24T11:11:27.510Z,1.23
2019-03-24T11:13:55.766Z,1.00
2019-03-24T11:16:24.038Z,1.63
2019-03-24T11:18:52.642Z,1.00
2019-03-24T11:21:20.904Z,1.07
2019-03-24T11:23:49.154Z,1.13
2019-03-24T11:26:17.467Z,1.47
2019-03-24T11:28:45.725Z,0.90
2019-03-24T11:31:13.990Z,0.97
2019-03-24T11:33:42.262Z,0.90
2019-03-24T11:36:10.770Z,1.07
2019-03-24T11:38:39.038Z,1.10
2019-03-24T11:41:07.301Z,0.90
2019-03-24T11:43:35.583Z,1.13
2019-03-24T11:46:03.829Z,1.20
2019-03-24T11:48:32.099Z,0.97
2019-03-24T11:51:00.359Z,0.97
2019-03-24T11:53:28.626Z,1.10
2019-03-24T11:55:56.882Z,0.93
2019-03-24T11:58:25.455Z,1.13
2019-03-24T12:00:53.724Z,1.10
2019-03-24T12:03:21.991Z,0.90
2019-03-24T12:05:50.249Z,0.90
2019-03-24T12:08:18.535Z,0.90
2019-03-24T12:10:46.790Z,0.80
2019-03-24T12:13:15.053Z,0.80
2019-03-24T12:15:43.320Z,1.07
2019-03-24T12:18:11.610Z,0.90
2019-03-24T12:20:39.863Z,0.80
2019-03-24T12:23:08.138Z,1.10
2019-03-24T12:25:36.404Z,1.00
2019-03-24T12:28:04.680Z,0.97
2019-03-24T12:30:32.919Z,1.10
2019-03-24T12:33:01.179Z,1.27
2019-03-24T12:35:29.442Z,0.80
2019-03-24T12:37:58.570Z,0.90
2019-03-24T12:40:26.838Z,0.90
2019-03-24T12:42:55.099Z,1.00
2019-03-24T12:45:23.375Z,0.60
2019-03-24T12:47:51.627Z,0.80
2019-03-24T12:50:30.595Z,1.20
2019-03-24T12:52:49.887Z,1.00
2019-03-24T12:55:18.184Z,0.90
2019-03-24T12:57:46.443Z,1.00
2019-03-24T13:00:17.982Z,0.77
2019-03-24T13:02:46.227Z,0.80
2019-03-24T13:05:14.489Z,0.80
2019-03-24T13:07:42.754Z,1.00
2019-03-24T13:10:11.020Z,0.90
2019-03-24T13:12:39.286Z,1.00
2019-03-24T13:15:08.140Z,0.70
2019-03-24T13:17:36.462Z,0.80
2019-03-24T13:20:06.360Z,1.17
2019-03-24T13:22:35.208Z,0.90
2019-03-24T13:25:05.431Z,0.80
2019-03-24T13:27:33.694Z,0.80
2019-03-24T13:30:01.967Z,1.00
2019-03-24T13:32:30.231Z,0.90
2019-03-24T13:34:58.501Z,1.10
2019-03-24T13:37:26.770Z,0.80
2019-03-24T13:39:55.030Z,1.03
2019-03-24T13:42:23.283Z,0.80
2019-03-24T13:44:51.558Z,0.80
2019-03-24T13:47:19.814Z,0.90
2019-03-24T13:49:48.239Z,0.80
2019-03-24T13:52:16.498Z,1.00
2019-03-24T13:54:44.765Z,0.80
2019-03-24T13:57:13.034Z,0.83
2019-03-24T13:59:41.318Z,1.00
2019-03-24T14:02:10.350Z,1.00
2019-03-24T14:04:38.616Z,1.03
2019-03-24T14:07:06.882Z,0.60
2019-03-24T14:09:35.142Z,0.90
2019-03-24T14:12:03.421Z,0.70
2019-03-24T14:14:31.691Z,0.93
2019-03-24T14:16:59.969Z,1.57
2019-03-24T14:19:28.219Z,0.80
2019-03-24T14:21:56.481Z,0.83
2019-03-24T14:24:24.739Z,1.67
2019-03-24T14:26:53.013Z,0.97
2019-03-24T14:29:21.296Z,1.23
2019-03-24T14:31:49.550Z,0.70
2019-03-24T14:34:17.811Z,0.80
2019-03-24T14:36:46.075Z,0.90
2019-03-24T14:39:14.340Z,0.67
2019-03-24T14:41:42.602Z,0.70
2019-03-24T14:44:11.170Z,0.90
2019-03-24T14:46:39.507Z,0.77
2019-03-24T14:49:07.767Z,1.03
2019-03-24T14:51:36.042Z,0.90
2019-03-24T14:54:04.322Z,0.70
2019-03-24T14:56:34.098Z,1.10
2019-03-24T14:59:02.582Z,1.03
2019-03-24T15:01:30.849Z,0.80
2019-03-24T15:03:59.115Z,0.80
2019-03-24T15:06:27.378Z,1.13
2019-03-24T15:08:55.630Z,0.80
2019-03-24T15:11:23.890Z,0.80
2019-03-24T15:13:52.155Z,0.70
2019-03-24T15:16:20.409Z,0.80
2019-03-24T15:18:48.681Z,0.90
2019-03-24T15:21:16.959Z,0.60
2019-03-24T15:23:45.226Z,0.83
2019-03-24T15:26:13.490Z,1.00
2019-03-24T15:28:41.758Z,0.77
2019-03-24T15:31:10.025Z,0.80
2019-03-24T15:33:38.307Z,0.87
2019-03-24T15:36:06.622Z,1.33
2019-03-24T15:38:34.887Z,0.83
2019-03-24T15:41:03.147Z,1.00
2019-03-24T15:43:31.414Z,0.97
2019-03-24T15:45:59.670Z,0.70
2019-03-24T15:48:29.310Z,0.70
2019-03-24T15:50:57.579Z,0.80
2019-03-24T15:53:25.850Z,0.70
2019-03-24T15:55:54.118Z,1.13
2019-03-24T15:58:22.397Z,0.70
2019-03-24T16:00:50.662Z,0.70
2019-03-24T16:03:18.929Z,0.73
2019-03-24T16:05:47.182Z,0.97
2019-03-24T16:08:15.454Z,0.70
2019-03-24T16:10:43.730Z,0.70
2019-03-24T16:13:12.001Z,0.87
2019-03-24T16:15:40.835Z,0.77
2019-03-24T16:18:09.156Z,0.90
2019-03-24T16:20:37.434Z,0.83
2019-03-24T16:23:05.690Z,0.70
2019-03-24T16:25:33.958Z,0.73
2019-03-24T16:28:02.220Z,0.90
2019-03-24T16:30:30.481Z,0.70
2019-03-24T16:32:58.738Z,0.80
2019-03-24T16:35:27.007Z,0.80
2019-03-24T16:37:55.257Z,0.70
2019-03-24T16:40:23.522Z,1.03
2019-03-24T16:42:51.859Z,0.80
2019-03-24T16:45:20.144Z,0.70
2019-03-24T16:47:48.404Z,0.90
2019-03-24T16:50:16.678Z,0.70
2019-03-24T16:52:44.926Z,0.87
2019-03-24T16:55:13.197Z,0.83
2019-03-24T16:57:41.462Z,0.80
2019-03-24T17:00:09.796Z,0.80
2019-03-24T17:02:38.055Z,0.80
2019-03-24T17:05:07.971Z,0.83
2019-03-24T17:07:36.307Z,0.87
2019-03-24T17:10:08.550Z,0.80
2019-03-24T17:12:36.809Z,1.17
2019-03-24T17:15:07.716Z,0.77
2019-03-24T17:17:36.006Z,0.77
2019-03-24T17:20:07.729Z,0.83
2019-03-24T17:22:35.999Z,0.80
2019-03-24T17:25:04.259Z,0.80
2019-03-24T17:27:32.522Z,0.73
2019-03-24T17:30:00.786Z,0.70
2019-03-24T17:32:29.709Z,0.77
2019-03-24T17:34:57.970Z,0.90
2019-03-24T17:37:26.239Z,0.80
2019-03-24T17:39:54.500Z,1.30
2019-03-24T17:42:23.054Z,0.70
2019-03-24T17:44:51.306Z,0.77
2019-03-24T17:47:19.566Z,0.67
2019-03-24T17:49:47.815Z,0.60
2019-03-24T17:52:16.086Z,0.70
2019-03-24T17:54:44.347Z,0.73
2019-03-24T17:57:12.623Z,0.80
2019-03-24T17:59:40.876Z,1.07
2019-03-24T18:02:14.337Z,0.80
2019-03-24T18:04:39.430Z,0.70
2019-03-24T18:07:07.703Z,0.77
2019-03-24T18:09:35.959Z,0.80
2019-03-24T18:12:04.219Z,1.20
2019-03-24T18:14:32.506Z,0.70
2019-03-24T18:17:00.767Z,0.70
2019-03-24T18:19:29.018Z,0.80
2019-03-24T18:21:57.290Z,1.00
2019-03-24T18:24:25.554Z,0.50
2019-03-24T18:26:53.827Z,0.93
2019-03-24T18:29:22.090Z,0.73
2019-03-24T18:31:50.703Z,0.73
2019-03-24T18:34:18.970Z,1.07
2019-03-24T18:36:47.236Z,0.80
2019-03-24T18:39:15.489Z,0.70
2019-03-24T18:41:43.751Z,0.70
2019-03-24T18:44:12.283Z,0.57
2019-03-24T18:46:40.550Z,0.67
2019-03-24T18:49:08.806Z,0.60
2019-03-24T18:51:37.078Z,0.60
2019-03-24T18:54:05.341Z,0.80
2019-03-24T18:56:33.591Z,0.50
2019-03-24T18:59:01.858Z,0.70
2019-03-24T19:01:30.118Z,0.87
2019-03-24T19:03:58.384Z,0.93
2019-03-24T19:06:26.644Z,0.73
2019-03-24T19:08:54.915Z,0.60
2019-03-24T19:11:23.239Z,1.00
2019-03-24T19:13:51.516Z,0.87
2019-03-24T19:16:19.769Z,1.00
2019-03-24T19:18:48.034Z,0.70
2019-03-24T19:21:16.299Z,0.60
2019-03-24T19:23:44.566Z,0.73
2019-03-24T19:26:12.826Z,0.63
2019-03-24T19:28:41.099Z,0.70
2019-03-24T19:31:09.401Z,0.80
2019-03-24T19:33:37.672Z,0.80
2019-03-24T19:36:05.922Z,0.70
2019-03-24T19:38:34.198Z,0.60
2019-03-24T19:41:02.455Z,0.97
2019-03-24T19:43:30.727Z,1.20
2019-03-24T19:45:58.983Z,0.77
2019-03-24T19:48:27.252Z,0.87
2019-03-24T19:50:55.510Z,0.67
2019-03-24T19:53:23.849Z,0.80
2019-03-24T19:55:52.114Z,0.50
2019-03-24T19:58:20.383Z,0.70
2019-03-24T20:00:48.644Z,0.60
2019-03-24T20:03:16.911Z,0.70
2019-03-24T20:05:45.174Z,0.70
2019-03-24T20:08:13.439Z,0.60
2019-03-24T20:10:41.748Z,0.50
2019-03-24T20:13:10.047Z,0.60
2019-03-24T20:15:38.294Z,0.80
2019-03-24T20:18:06.550Z,0.70
2019-03-24T20:20:34.814Z,0.63
2019-03-24T20:23:03.083Z,0.70
2019-03-24T20:25:31.351Z,0.80
2019-03-24T20:27:59.974Z,0.80
2019-03-24T20:30:28.273Z,0.60
2019-03-24T20:32:56.642Z,0.50
2019-03-24T20:35:24.906Z,0.60
2019-03-24T20:37:53.171Z,0.70
2019-03-24T20:40:21.434Z,0.70
2019-03-24T20:42:49.768Z,0.50
2019-03-24T20:45:18.038Z,0.87
2019-03-24T20:47:46.291Z,0.63
2019-03-24T20:50:14.834Z,1.13
2019-03-24T20:52:43.985Z,0.60
2019-03-24T20:55:12.262Z,0.60
2019-03-24T20:57:40.522Z,0.60
2019-03-24T21:00:09.062Z,0.70
2019-03-24T21:02:37.318Z,1.00
2019-03-24T21:05:05.958Z,0.47
2019-03-24T21:07:34.222Z,0.60
2019-03-24T21:10:02.532Z,0.63
2019-03-24T21:12:30.787Z,0.57
2019-03-24T21:14:59.090Z,0.70
2019-03-24T21:17:27.360Z,0.40
2019-03-24T21:19:55.622Z,0.70
2019-03-24T21:22:23.874Z,0.60
2019-03-24T21:24:52.136Z,0.50
2019-03-24T21:27:20.403Z,1.13
2019-03-24T21:29:48.660Z,0.70
2019-03-24T21:32:16.935Z,0.67
2019-03-24T21:34:45.193Z,0.60
2019-03-24T21:37:13.470Z,0.40
2019-03-24T21:39:41.732Z,0.67
2019-03-24T21:42:10.011Z,0.63
2019-03-24T21:44:38.254Z,0.70
2019-03-24T21:47:06.526Z,0.87
2019-03-24T21:49:34.790Z,0.50
2019-03-24T21:52:03.234Z,0.70
2019-03-24T21:54:31.558Z,0.70
2019-03-24T21:56:59.823Z,0.60
2019-03-24T21:59:28.074Z,0.60
2019-03-24T22:01:56.364Z,0.60
2019-03-24T22:04:24.679Z,0.80
2019-03-24T22:06:52.956Z,0.50
2019-03-24T22:09:21.235Z,0.50
2019-03-24T22:11:49.554Z,0.70
2019-03-24T22:14:17.801Z,0.60
2019-03-24T22:16:46.075Z,0.70
2019-03-24T22:19:14.335Z,0.50
2019-03-24T22:21:42.603Z,0.60
2019-03-24T22:24:10.854Z,0.70
2019-03-24T22:26:39.126Z,0.50
2019-03-24T22:29:07.398Z,0.50
2019-03-24T22:31:35.658Z,0.87
2019-03-24T22:34:04.279Z,0.60
2019-03-24T22:36:32.547Z,0.97
2019-03-24T22:39:00.810Z,0.50
2019-03-24T22:41:29.367Z,0.70
2019-03-24T22:43:57.687Z,0.60
2019-03-24T22:46:25.946Z,0.63
2019-03-24T22:48:54.221Z,0.60
2019-03-24T22:51:22.469Z,0.70
2019-03-24T22:53:50.759Z,0.40
2019-03-24T22:56:19.006Z,0.60
2019-03-24T22:58:47.279Z,0.60
2019-03-24T23:01:15.535Z,0.60
2019-03-24T23:03:43.815Z,0.97
2019-03-24T23:06:12.079Z,0.53
2019-03-24T23:08:40.346Z,0.60
2019-03-24T23:11:08.598Z,0.60
2019-03-24T23:13:36.872Z,0.73
2019-03-24T23:16:05.139Z,0.63
2019-03-24T23:18:33.422Z,0.47
2019-03-24T23:21:01.683Z,0.90
2019-03-24T23:23:29.951Z,0.63
2019-03-24T23:25:58.211Z,0.80
2019-03-24T23:28:26.479Z,0.70
2019-03-24T23:30:54.734Z,0.50
2019-03-24T23:33:23.006Z,0.60
2019-03-24T23:35:51.265Z,0.60
2019-03-24T23:38:19.531Z,0.50
2019-03-24T23:40:47.788Z,0.50
2019-03-24T23:43:16.062Z,0.57
2019-03-24T23:45:44.317Z,0.67
2019-03-24T23:48:12.594Z,0.50
2019-03-24T23:50:40.850Z,0.90
2019-03-24T23:53:09.456Z,0.73
2019-03-24T23:55:37.711Z,0.70
2019-03-24T23:58:05.971Z,0.63
